sensor_id;sensor_type;location;lat;lon;timestamp;P1;durP1;ratioP1;P2;durP2;ratioP2
10645;SDS011;5371;49.782;9.932;2022-10-17T00:01:46;29.45;;;7.10;;
10645;SDS011;5371;49.782;9.932;2022-10-17T00:04:13;22.60;;;6.47;;
10645;SDS011;5371;49.782;9.932;2022-10-17T00:06:42;14.57;;;5.95;;
10645;SDS011;5371;49.782;9.932;2022-10-17T00:09:09;27.08;;;7.03;;
10645;SDS011;5371;49.782;9.932;2022-10-17T00:11:36;27.08;;;6.55;;
10645;SDS011;5371;49.782;9.932;2022-10-17T00:14:05;33.08;;;6.68;;
10645;SDS011;5371;49.782;9.932;2022-10-17T00:16:33;20.00;;;6.07;;
10645;SDS011;5371;49.782;9.932;2022-10-17T00:19:02;16.77;;;5.53;;
10645;SDS011;5371;49.782;9.932;2022-10-17T00:21:29;15.25;;;5.40;;
10645;SDS011;5371;49.782;9.932;2022-10-17T00:23:58;25.38;;;5.80;;
10645;SDS011;5371;49.782;9.932;2022-10-17T00:26:25;17.52;;;5.15;;
10645;SDS011;5371;49.782;9.932;2022-10-17T00:28:54;22.48;;;5.18;;
10645;SDS011;5371;49.782;9.932;2022-10-17T00:31:21;21.60;;;5.45;;
10645;SDS011;5371;49.782;9.932;2022-10-17T00:33:50;22.80;;;5.32;;
10645;SDS011;5371;49.782;9.932;2022-10-17T00:36:19;8.07;;;4.78;;
10645;SDS011;5371;49.782;9.932;2022-10-17T00:38:49;10.13;;;5.05;;
10645;SDS011;5371;49.782;9.932;2022-10-17T00:41:19;5.35;;;4.50;;
10645;SDS011;5371;49.782;9.932;2022-10-17T00:43:55;11.05;;;5.30;;
10645;SDS011;5371;49.782;9.932;2022-10-17T00:46:25;11.88;;;4.70;;
10645;SDS011;5371;49.782;9.932;2022-10-17T00:48:54;7.72;;;4.13;;
10645;SDS011;5371;49.782;9.932;2022-10-17T00:51:25;6.43;;;4.28;;
10645;SDS011;5371;49.782;9.932;2022-10-17T00:53:56;13.07;;;4.90;;
10645;SDS011;5371;49.782;9.932;2022-10-17T00:56:26;13.30;;;5.25;;
10645;SDS011;5371;49.782;9.932;2022-10-17T00:58:53;19.63;;;5.30;;
10645;SDS011;5371;49.782;9.932;2022-10-17T01:01:20;10.95;;;4.80;;
10645;SDS011;5371;49.782;9.932;2022-10-17T01:03:47;11.55;;;4.43;;
10645;SDS011;5371;49.782;9.932;2022-10-17T01:06:14;14.25;;;4.50;;
10645;SDS011;5371;49.782;9.932;2022-10-17T01:08:41;8.27;;;4.50;;
10645;SDS011;5371;49.782;9.932;2022-10-17T01:11:12;9.15;;;4.40;;
10645;SDS011;5371;49.782;9.932;2022-10-17T01:13:50;11.05;;;4.00;;
10645;SDS011;5371;49.782;9.932;2022-10-17T01:16:26;10.82;;;4.57;;
10645;SDS011;5371;49.782;9.932;2022-10-17T01:19:02;8.80;;;4.88;;
10645;SDS011;5371;49.782;9.932;2022-10-17T01:21:46;12.70;;;4.75;;
10645;SDS011;5371;49.782;9.932;2022-10-17T01:24:24;8.93;;;5.10;;
10645;SDS011;5371;49.782;9.932;2022-10-17T01:27:21;14.85;;;6.05;;
10645;SDS011;5371;49.782;9.932;2022-10-17T01:30:31;12.70;;;5.28;;
10645;SDS011;5371;49.782;9.932;2022-10-17T01:33:16;9.95;;;4.80;;
10645;SDS011;5371;49.782;9.932;2022-10-17T01:35:51;16.95;;;5.47;;
10645;SDS011;5371;49.782;9.932;2022-10-17T01:38:24;13.65;;;5.32;;
10645;SDS011;5371;49.782;9.932;2022-10-17T01:40:58;24.20;;;5.35;;
10645;SDS011;5371;49.782;9.932;2022-10-17T01:43:31;13.93;;;5.22;;
10645;SDS011;5371;49.782;9.932;2022-10-17T01:46:06;19.85;;;5.15;;
10645;SDS011;5371;49.782;9.932;2022-10-17T01:48:39;22.60;;;5.35;;
10645;SDS011;5371;49.782;9.932;2022-10-17T01:51:11;9.77;;;4.97;;
10645;SDS011;5371;49.782;9.932;2022-10-17T01:53:44;12.18;;;5.30;;
10645;SDS011;5371;49.782;9.932;2022-10-17T01:56:15;19.50;;;5.45;;
10645;SDS011;5371;49.782;9.932;2022-10-17T01:58:46;14.80;;;5.03;;
10645;SDS011;5371;49.782;9.932;2022-10-17T02:01:20;9.63;;;4.80;;
10645;SDS011;5371;49.782;9.932;2022-10-17T02:03:48;11.98;;;4.85;;
10645;SDS011;5371;49.782;9.932;2022-10-17T02:06:20;19.17;;;4.60;;
10645;SDS011;5371;49.782;9.932;2022-10-17T02:08:49;17.38;;;4.72;;
10645;SDS011;5371;49.782;9.932;2022-10-17T02:11:18;24.27;;;5.03;;
10645;SDS011;5371;49.782;9.932;2022-10-17T02:13:52;14.18;;;4.88;;
10645;SDS011;5371;49.782;9.932;2022-10-17T02:16:34;6.60;;;4.38;;
10645;SDS011;5371;49.782;9.932;2022-10-17T02:19:11;8.88;;;3.90;;
10645;SDS011;5371;49.782;9.932;2022-10-17T02:21:52;7.05;;;3.63;;
10645;SDS011;5371;49.782;9.932;2022-10-17T02:24:28;6.18;;;2.83;;
10645;SDS011;5371;49.782;9.932;2022-10-17T02:26:59;9.50;;;3.13;;
10645;SDS011;5371;49.782;9.932;2022-10-17T02:29:32;9.95;;;3.65;;
10645;SDS011;5371;49.782;9.932;2022-10-17T02:32:05;8.07;;;3.88;;
10645;SDS011;5371;49.782;9.932;2022-10-17T02:34:35;11.98;;;4.20;;
10645;SDS011;5371;49.782;9.932;2022-10-17T02:37:06;16.23;;;4.50;;
10645;SDS011;5371;49.782;9.932;2022-10-17T02:39:36;14.75;;;4.88;;
10645;SDS011;5371;49.782;9.932;2022-10-17T02:42:05;16.95;;;4.88;;
10645;SDS011;5371;49.782;9.932;2022-10-17T02:44:36;16.13;;;5.40;;
10645;SDS011;5371;49.782;9.932;2022-10-17T02:47:08;12.70;;;5.55;;
10645;SDS011;5371;49.782;9.932;2022-10-17T02:49:42;13.15;;;5.03;;
10645;SDS011;5371;49.782;9.932;2022-10-17T02:52:13;11.40;;;5.13;;
10645;SDS011;5371;49.782;9.932;2022-10-17T02:54:44;11.23;;;5.10;;
10645;SDS011;5371;49.782;9.932;2022-10-17T02:57:19;9.88;;;5.05;;
10645;SDS011;5371;49.782;9.932;2022-10-17T02:59:50;23.60;;;5.40;;
10645;SDS011;5371;49.782;9.932;2022-10-17T03:02:20;14.38;;;5.13;;
10645;SDS011;5371;49.782;9.932;2022-10-17T03:04:47;17.67;;;5.95;;
10645;SDS011;5371;49.782;9.932;2022-10-17T03:07:14;8.57;;;4.90;;
10645;SDS011;5371;49.782;9.932;2022-10-17T03:09:42;6.20;;;4.65;;
10645;SDS011;5371;49.782;9.932;2022-10-17T03:12:09;6.93;;;4.93;;
10645;SDS011;5371;49.782;9.932;2022-10-17T03:14:36;12.60;;;4.72;;
10645;SDS011;5371;49.782;9.932;2022-10-17T03:17:03;9.32;;;4.45;;
10645;SDS011;5371;49.782;9.932;2022-10-17T03:19:31;9.05;;;3.97;;
10645;SDS011;5371;49.782;9.932;2022-10-17T03:21:58;5.05;;;4.25;;
10645;SDS011;5371;49.782;9.932;2022-10-17T03:24:25;11.52;;;4.43;;
10645;SDS011;5371;49.782;9.932;2022-10-17T03:26:52;5.47;;;4.28;;
10645;SDS011;5371;49.782;9.932;2022-10-17T03:29:19;5.68;;;3.63;;
10645;SDS011;5371;49.782;9.932;2022-10-17T03:31:46;5.53;;;3.05;;
10645;SDS011;5371;49.782;9.932;2022-10-17T03:34:13;8.07;;;3.55;;
10645;SDS011;5371;49.782;9.932;2022-10-17T03:36:44;4.25;;;3.30;;
10645;SDS011;5371;49.782;9.932;2022-10-17T03:39:11;6.93;;;3.58;;
10645;SDS011;5371;49.782;9.932;2022-10-17T03:41:38;6.20;;;3.70;;
10645;SDS011;5371;49.782;9.932;2022-10-17T03:44:05;14.35;;;4.00;;
10645;SDS011;5371;49.782;9.932;2022-10-17T03:46:32;24.00;;;4.30;;
10645;SDS011;5371;49.782;9.932;2022-10-17T03:48:59;15.63;;;4.57;;
10645;SDS011;5371;49.782;9.932;2022-10-17T03:51:26;8.70;;;4.85;;
10645;SDS011;5371;49.782;9.932;2022-10-17T03:54:02;29.48;;;4.97;;
10645;SDS011;5371;49.782;9.932;2022-10-17T03:56:29;25.30;;;4.90;;
10645;SDS011;5371;49.782;9.932;2022-10-17T03:59:01;18.60;;;4.20;;
10645;SDS011;5371;49.782;9.932;2022-10-17T04:01:30;27.20;;;5.03;;
10645;SDS011;5371;49.782;9.932;2022-10-17T04:03:57;39.60;;;4.55;;
10645;SDS011;5371;49.782;9.932;2022-10-17T04:06:28;26.65;;;4.45;;
10645;SDS011;5371;49.782;9.932;2022-10-17T04:08:55;15.40;;;4.10;;
10645;SDS011;5371;49.782;9.932;2022-10-17T04:11:47;25.50;;;4.40;;
10645;SDS011;5371;49.782;9.932;2022-10-17T04:14:13;35.37;;;4.63;;
10645;SDS011;5371;49.782;9.932;2022-10-17T04:16:41;18.08;;;4.18;;
10645;SDS011;5371;49.782;9.932;2022-10-17T04:19:13;32.90;;;5.13;;
10645;SDS011;5371;49.782;9.932;2022-10-17T04:21:44;52.80;;;5.35;;
10645;SDS011;5371;49.782;9.932;2022-10-17T04:24:12;35.53;;;4.43;;
10645;SDS011;5371;49.782;9.932;2022-10-17T04:26:42;13.38;;;4.20;;
10645;SDS011;5371;49.782;9.932;2022-10-17T04:29:10;30.40;;;4.70;;
10645;SDS011;5371;49.782;9.932;2022-10-17T04:31:39;17.65;;;4.13;;
10645;SDS011;5371;49.782;9.932;2022-10-17T04:34:29;6.32;;;3.90;;
10645;SDS011;5371;49.782;9.932;2022-10-17T04:36:56;10.68;;;3.65;;
10645;SDS011;5371;49.782;9.932;2022-10-17T04:39:23;12.27;;;3.70;;
10645;SDS011;5371;49.782;9.932;2022-10-17T04:41:50;20.95;;;3.95;;
10645;SDS011;5371;49.782;9.932;2022-10-17T04:44:20;5.00;;;3.50;;
10645;SDS011;5371;49.782;9.932;2022-10-17T04:46:50;10.52;;;5.03;;
10645;SDS011;5371;49.782;9.932;2022-10-17T04:49:18;8.52;;;3.78;;
10645;SDS011;5371;49.782;9.932;2022-10-17T04:51:48;8.90;;;4.22;;
10645;SDS011;5371;49.782;9.932;2022-10-17T04:54:22;12.65;;;4.43;;
10645;SDS011;5371;49.782;9.932;2022-10-17T04:56:56;7.18;;;4.13;;
10645;SDS011;5371;49.782;9.932;2022-10-17T04:59:25;11.30;;;4.93;;
10645;SDS011;5371;49.782;9.932;2022-10-17T05:02:11;13.48;;;4.50;;
10645;SDS011;5371;49.782;9.932;2022-10-17T05:04:39;17.73;;;5.03;;
10645;SDS011;5371;49.782;9.932;2022-10-17T05:07:07;6.10;;;4.63;;
10645;SDS011;5371;49.782;9.932;2022-10-17T05:09:44;17.30;;;5.30;;
10645;SDS011;5371;49.782;9.932;2022-10-17T05:12:11;12.65;;;5.00;;
10645;SDS011;5371;49.782;9.932;2022-10-17T05:14:43;8.38;;;5.05;;
10645;SDS011;5371;49.782;9.932;2022-10-17T05:17:10;9.65;;;4.53;;
10645;SDS011;5371;49.782;9.932;2022-10-17T05:19:38;6.28;;;4.32;;
10645;SDS011;5371;49.782;9.932;2022-10-17T05:22:06;10.60;;;4.27;;
10645;SDS011;5371;49.782;9.932;2022-10-17T05:24:33;20.03;;;4.73;;
10645;SDS011;5371;49.782;9.932;2022-10-17T05:27:00;7.07;;;4.00;;
10645;SDS011;5371;49.782;9.932;2022-10-17T05:29:27;4.73;;;4.07;;
10645;SDS011;5371;49.782;9.932;2022-10-17T05:32:04;6.57;;;4.20;;
10645;SDS011;5371;49.782;9.932;2022-10-17T05:34:33;13.98;;;4.50;;
10645;SDS011;5371;49.782;9.932;2022-10-17T05:37:00;5.45;;;4.03;;
10645;SDS011;5371;49.782;9.932;2022-10-17T05:39:27;7.30;;;3.97;;
10645;SDS011;5371;49.782;9.932;2022-10-17T05:41:55;9.63;;;4.20;;
10645;SDS011;5371;49.782;9.932;2022-10-17T05:44:23;10.60;;;4.35;;
10645;SDS011;5371;49.782;9.932;2022-10-17T05:46:54;6.13;;;4.20;;
10645;SDS011;5371;49.782;9.932;2022-10-17T05:49:23;6.97;;;4.40;;
10645;SDS011;5371;49.782;9.932;2022-10-17T05:51:50;14.07;;;4.35;;
10645;SDS011;5371;49.782;9.932;2022-10-17T05:54:17;7.93;;;3.70;;
10645;SDS011;5371;49.782;9.932;2022-10-17T05:56:44;8.20;;;3.90;;
10645;SDS011;5371;49.782;9.932;2022-10-17T05:59:11;5.73;;;4.20;;
10645;SDS011;5371;49.782;9.932;2022-10-17T06:01:49;7.17;;;4.00;;
10645;SDS011;5371;49.782;9.932;2022-10-17T06:04:16;7.03;;;3.83;;
10645;SDS011;5371;49.782;9.932;2022-10-17T06:06:44;5.10;;;3.20;;
10645;SDS011;5371;49.782;9.932;2022-10-17T06:09:12;5.93;;;3.77;;
10645;SDS011;5371;49.782;9.932;2022-10-17T06:11:44;8.63;;;3.83;;
10645;SDS011;5371;49.782;9.932;2022-10-17T06:14:12;9.30;;;3.80;;
10645;SDS011;5371;49.782;9.932;2022-10-17T06:16:40;4.22;;;3.83;;
10645;SDS011;5371;49.782;9.932;2022-10-17T06:19:08;11.47;;;4.20;;
10645;SDS011;5371;49.782;9.932;2022-10-17T06:21:36;9.03;;;4.40;;
10645;SDS011;5371;49.782;9.932;2022-10-17T06:24:09;8.00;;;4.47;;
10645;SDS011;5371;49.782;9.932;2022-10-17T06:26:39;8.17;;;4.40;;
10645;SDS011;5371;49.782;9.932;2022-10-17T06:29:07;6.80;;;4.20;;
10645;SDS011;5371;49.782;9.932;2022-10-17T06:31:41;7.57;;;3.73;;
10645;SDS011;5371;49.782;9.932;2022-10-17T06:34:09;9.10;;;3.93;;
10645;SDS011;5371;49.782;9.932;2022-10-17T06:36:39;8.57;;;3.78;;
10645;SDS011;5371;49.782;9.932;2022-10-17T06:39:07;7.37;;;3.43;;
10645;SDS011;5371;49.782;9.932;2022-10-17T06:41:43;8.07;;;3.80;;
10645;SDS011;5371;49.782;9.932;2022-10-17T06:44:10;6.43;;;3.43;;
10645;SDS011;5371;49.782;9.932;2022-10-17T06:46:56;6.23;;;3.53;;
10645;SDS011;5371;49.782;9.932;2022-10-17T06:49:24;5.77;;;3.70;;
10645;SDS011;5371;49.782;9.932;2022-10-17T06:52:17;12.93;;;4.17;;
10645;SDS011;5371;49.782;9.932;2022-10-17T06:55:03;5.50;;;3.30;;
10645;SDS011;5371;49.782;9.932;2022-10-17T06:57:41;3.80;;;3.00;;
10645;SDS011;5371;49.782;9.932;2022-10-17T07:00:35;7.22;;;3.17;;
10645;SDS011;5371;49.782;9.932;2022-10-17T07:03:04;4.57;;;2.72;;
10645;SDS011;5371;49.782;9.932;2022-10-17T07:05:31;4.65;;;2.70;;
10645;SDS011;5371;49.782;9.932;2022-10-17T07:07:58;7.43;;;2.40;;
10645;SDS011;5371;49.782;9.932;2022-10-17T07:10:25;3.45;;;2.28;;
10645;SDS011;5371;49.782;9.932;2022-10-17T07:12:54;3.72;;;2.70;;
10645;SDS011;5371;49.782;9.932;2022-10-17T07:15:20;3.55;;;2.58;;
10645;SDS011;5371;49.782;9.932;2022-10-17T07:17:47;2.83;;;2.42;;
10645;SDS011;5371;49.782;9.932;2022-10-17T07:20:17;4.07;;;2.17;;
10645;SDS011;5371;49.782;9.932;2022-10-17T07:22:44;3.42;;;2.30;;
10645;SDS011;5371;49.782;9.932;2022-10-17T07:25:11;6.80;;;2.70;;
10645;SDS011;5371;49.782;9.932;2022-10-17T07:27:47;8.45;;;3.28;;
10645;SDS011;5371;49.782;9.932;2022-10-17T07:30:16;7.80;;;3.30;;
10645;SDS011;5371;49.782;9.932;2022-10-17T07:32:57;6.80;;;3.20;;
10645;SDS011;5371;49.782;9.932;2022-10-17T07:35:24;6.70;;;3.20;;
10645;SDS011;5371;49.782;9.932;2022-10-17T07:37:52;4.80;;;2.55;;
10645;SDS011;5371;49.782;9.932;2022-10-17T07:40:20;3.78;;;2.72;;
10645;SDS011;5371;49.782;9.932;2022-10-17T07:42:46;5.63;;;3.10;;
10645;SDS011;5371;49.782;9.932;2022-10-17T07:45:13;4.10;;;3.70;;
10645;SDS011;5371;49.782;9.932;2022-10-17T07:47:44;6.28;;;3.85;;
10645;SDS011;5371;49.782;9.932;2022-10-17T07:50:14;7.75;;;3.90;;
10645;SDS011;5371;49.782;9.932;2022-10-17T07:52:41;4.97;;;3.80;;
10645;SDS011;5371;49.782;9.932;2022-10-17T07:55:08;6.47;;;3.97;;
10645;SDS011;5371;49.782;9.932;2022-10-17T07:57:35;8.25;;;4.25;;
10645;SDS011;5371;49.782;9.932;2022-10-17T08:00:02;5.72;;;3.63;;
10645;SDS011;5371;49.782;9.932;2022-10-17T08:02:46;4.35;;;3.95;;
10645;SDS011;5371;49.782;9.932;2022-10-17T08:05:22;6.10;;;4.15;;
10645;SDS011;5371;49.782;9.932;2022-10-17T08:07:49;6.50;;;3.97;;
10645;SDS011;5371;49.782;9.932;2022-10-17T08:10:16;8.20;;;4.10;;
10645;SDS011;5371;49.782;9.932;2022-10-17T08:12:43;4.93;;;4.07;;
10645;SDS011;5371;49.782;9.932;2022-10-17T08:15:10;5.47;;;3.60;;
10645;SDS011;5371;49.782;9.932;2022-10-17T08:17:37;4.47;;;3.83;;
10645;SDS011;5371;49.782;9.932;2022-10-17T08:20:07;5.03;;;3.70;;
10645;SDS011;5371;49.782;9.932;2022-10-17T08:22:35;5.30;;;4.05;;
10645;SDS011;5371;49.782;9.932;2022-10-17T08:25:02;6.90;;;3.90;;
10645;SDS011;5371;49.782;9.932;2022-10-17T08:27:31;5.68;;;4.03;;
10645;SDS011;5371;49.782;9.932;2022-10-17T08:29:58;7.43;;;3.83;;
10645;SDS011;5371;49.782;9.932;2022-10-17T08:32:26;6.03;;;3.78;;
10645;SDS011;5371;49.782;9.932;2022-10-17T08:34:54;6.30;;;3.85;;
10645;SDS011;5371;49.782;9.932;2022-10-17T08:37:23;6.80;;;3.80;;
10645;SDS011;5371;49.782;9.932;2022-10-17T08:39:50;6.95;;;3.85;;
10645;SDS011;5371;49.782;9.932;2022-10-17T08:42:23;8.25;;;3.97;;
10645;SDS011;5371;49.782;9.932;2022-10-17T08:45:00;5.22;;;4.13;;
10645;SDS011;5371;49.782;9.932;2022-10-17T08:47:34;7.30;;;4.30;;
10645;SDS011;5371;49.782;9.932;2022-10-17T08:50:04;5.45;;;3.88;;
10645;SDS011;5371;49.782;9.932;2022-10-17T08:52:35;8.55;;;3.80;;
10645;SDS011;5371;49.782;9.932;2022-10-17T08:55:11;4.90;;;3.63;;
10645;SDS011;5371;49.782;9.932;2022-10-17T08:57:42;5.20;;;4.03;;
10645;SDS011;5371;49.782;9.932;2022-10-17T09:00:12;7.57;;;4.22;;
10645;SDS011;5371;49.782;9.932;2022-10-17T09:02:48;5.80;;;4.18;;
10645;SDS011;5371;49.782;9.932;2022-10-17T09:05:26;7.32;;;4.00;;
10645;SDS011;5371;49.782;9.932;2022-10-17T09:08:08;4.43;;;3.50;;
10645;SDS011;5371;49.782;9.932;2022-10-17T09:10:50;7.78;;;3.63;;
10645;SDS011;5371;49.782;9.932;2022-10-17T09:13:25;5.32;;;3.58;;
10645;SDS011;5371;49.782;9.932;2022-10-17T09:16:03;7.38;;;3.58;;
10645;SDS011;5371;49.782;9.932;2022-10-17T09:18:52;5.65;;;3.58;;
10645;SDS011;5371;49.782;9.932;2022-10-17T09:21:26;6.55;;;3.53;;
10645;SDS011;5371;49.782;9.932;2022-10-17T09:24:05;6.50;;;3.38;;
10645;SDS011;5371;49.782;9.932;2022-10-17T09:26:38;6.43;;;3.50;;
10645;SDS011;5371;49.782;9.932;2022-10-17T09:29:10;4.97;;;3.50;;
10645;SDS011;5371;49.782;9.932;2022-10-17T09:31:44;5.90;;;3.70;;
10645;SDS011;5371;49.782;9.932;2022-10-17T09:34:17;8.30;;;3.30;;
10645;SDS011;5371;49.782;9.932;2022-10-17T09:36:43;5.85;;;3.28;;
10645;SDS011;5371;49.782;9.932;2022-10-17T09:39:12;8.43;;;3.65;;
10645;SDS011;5371;49.782;9.932;2022-10-17T09:41:46;6.20;;;3.42;;
10645;SDS011;5371;49.782;9.932;2022-10-17T09:44:17;4.65;;;2.83;;
10645;SDS011;5371;49.782;9.932;2022-10-17T09:46:52;4.60;;;3.08;;
10645;SDS011;5371;49.782;9.932;2022-10-17T09:49:32;5.65;;;3.13;;
10645;SDS011;5371;49.782;9.932;2022-10-17T09:52:02;7.38;;;3.35;;
10645;SDS011;5371;49.782;9.932;2022-10-17T09:54:35;4.82;;;3.08;;
10645;SDS011;5371;49.782;9.932;2022-10-17T09:57:08;6.82;;;3.30;;
10645;SDS011;5371;49.782;9.932;2022-10-17T09:59:37;4.32;;;3.38;;
10645;SDS011;5371;49.782;9.932;2022-10-17T10:02:14;7.28;;;3.13;;
10645;SDS011;5371;49.782;9.932;2022-10-17T10:04:55;6.13;;;3.10;;
10645;SDS011;5371;49.782;9.932;2022-10-17T10:07:26;4.60;;;3.00;;
10645;SDS011;5371;49.782;9.932;2022-10-17T10:10:00;7.82;;;3.45;;
10645;SDS011;5371;49.782;9.932;2022-10-17T10:12:29;7.47;;;3.30;;
10645;SDS011;5371;49.782;9.932;2022-10-17T10:14:57;6.75;;;3.17;;
10645;SDS011;5371;49.782;9.932;2022-10-17T10:17:33;6.63;;;3.25;;
10645;SDS011;5371;49.782;9.932;2022-10-17T10:20:03;4.05;;;2.83;;
10645;SDS011;5371;49.782;9.932;2022-10-17T10:23:04;7.88;;;2.90;;
10645;SDS011;5371;49.782;9.932;2022-10-17T10:25:33;5.13;;;2.83;;
10645;SDS011;5371;49.782;9.932;2022-10-17T10:28:01;5.70;;;2.72;;
10645;SDS011;5371;49.782;9.932;2022-10-17T10:30:35;5.10;;;2.65;;
10645;SDS011;5371;49.782;9.932;2022-10-17T10:33:02;4.30;;;2.72;;
10645;SDS011;5371;49.782;9.932;2022-10-17T10:35:30;3.65;;;2.35;;
10645;SDS011;5371;49.782;9.932;2022-10-17T10:37:59;3.58;;;2.33;;
10645;SDS011;5371;49.782;9.932;2022-10-17T10:40:30;2.80;;;2.40;;
10645;SDS011;5371;49.782;9.932;2022-10-17T10:43:03;3.97;;;2.38;;
10645;SDS011;5371;49.782;9.932;2022-10-17T10:45:38;4.07;;;2.35;;
10645;SDS011;5371;49.782;9.932;2022-10-17T10:48:13;7.05;;;2.63;;
10645;SDS011;5371;49.782;9.932;2022-10-17T10:50:48;6.65;;;2.50;;
10645;SDS011;5371;49.782;9.932;2022-10-17T10:53:26;6.72;;;2.40;;
10645;SDS011;5371;49.782;9.932;2022-10-17T10:55:59;7.80;;;2.38;;
10645;SDS011;5371;49.782;9.932;2022-10-17T10:58:36;5.43;;;2.33;;
10645;SDS011;5371;49.782;9.932;2022-10-17T11:01:11;4.47;;;2.40;;
10645;SDS011;5371;49.782;9.932;2022-10-17T11:03:51;4.53;;;2.47;;
10645;SDS011;5371;49.782;9.932;2022-10-17T11:06:25;6.43;;;2.50;;
10645;SDS011;5371;49.782;9.932;2022-10-17T11:08:57;4.30;;;2.30;;
10645;SDS011;5371;49.782;9.932;2022-10-17T11:11:46;5.05;;;2.13;;
10645;SDS011;5371;49.782;9.932;2022-10-17T11:14:22;4.88;;;2.35;;
10645;SDS011;5371;49.782;9.932;2022-10-17T11:16:59;7.80;;;2.20;;
10645;SDS011;5371;49.782;9.932;2022-10-17T11:19:36;5.50;;;2.42;;
10645;SDS011;5371;49.782;9.932;2022-10-17T11:22:10;3.83;;;2.25;;
10645;SDS011;5371;49.782;9.932;2022-10-17T11:24:43;3.67;;;2.20;;
10645;SDS011;5371;49.782;9.932;2022-10-17T11:27:21;5.50;;;2.67;;
10645;SDS011;5371;49.782;9.932;2022-10-17T11:29:50;7.85;;;2.40;;
10645;SDS011;5371;49.782;9.932;2022-10-17T11:32:18;5.22;;;2.40;;
10645;SDS011;5371;49.782;9.932;2022-10-17T11:34:51;5.05;;;2.03;;
10645;SDS011;5371;49.782;9.932;2022-10-17T11:37:24;4.00;;;2.38;;
10645;SDS011;5371;49.782;9.932;2022-10-17T11:39:57;3.85;;;2.20;;
10645;SDS011;5371;49.782;9.932;2022-10-17T11:42:29;3.50;;;2.05;;
10645;SDS011;5371;49.782;9.932;2022-10-17T11:45:02;6.78;;;2.20;;
10645;SDS011;5371;49.782;9.932;2022-10-17T11:47:36;3.63;;;2.10;;
10645;SDS011;5371;49.782;9.932;2022-10-17T11:50:11;2.55;;;2.22;;
10645;SDS011;5371;49.782;9.932;2022-10-17T11:52:47;6.63;;;2.30;;
10645;SDS011;5371;49.782;9.932;2022-10-17T11:55:18;5.38;;;2.13;;
10645;SDS011;5371;49.782;9.932;2022-10-17T11:57:53;3.97;;;2.17;;
10645;SDS011;5371;49.782;9.932;2022-10-17T12:00:33;6.90;;;2.42;;
10645;SDS011;5371;49.782;9.932;2022-10-17T12:03:16;6.82;;;2.38;;
10645;SDS011;5371;49.782;9.932;2022-10-17T12:05:54;5.72;;;2.35;;
10645;SDS011;5371;49.782;9.932;2022-10-17T12:08:29;3.45;;;2.00;;
10645;SDS011;5371;49.782;9.932;2022-10-17T12:11:03;5.57;;;2.60;;
10645;SDS011;5371;49.782;9.932;2022-10-17T12:13:49;3.42;;;2.13;;
10645;SDS011;5371;49.782;9.932;2022-10-17T12:19:22;3.28;;;2.10;;
10645;SDS011;5371;49.782;9.932;2022-10-17T12:21:53;4.72;;;2.15;;
10645;SDS011;5371;49.782;9.932;2022-10-17T12:24:26;4.05;;;1.90;;
10645;SDS011;5371;49.782;9.932;2022-10-17T12:30:03;4.05;;;2.00;;
10645;SDS011;5371;49.782;9.932;2022-10-17T12:32:34;3.47;;;1.75;;
10645;SDS011;5371;49.782;9.932;2022-10-17T12:35:02;3.90;;;2.00;;
10645;SDS011;5371;49.782;9.932;2022-10-17T12:43:35;3.00;;;1.90;;
10645;SDS011;5371;49.782;9.932;2022-10-17T12:49:21;3.53;;;1.90;;
10645;SDS011;5371;49.782;9.932;2022-10-17T12:52:17;3.20;;;1.98;;
10645;SDS011;5371;49.782;9.932;2022-10-17T12:54:47;4.88;;;2.00;;
10645;SDS011;5371;49.782;9.932;2022-10-17T12:57:20;6.32;;;2.08;;
10645;SDS011;5371;49.782;9.932;2022-10-17T12:59:51;4.80;;;1.90;;
10645;SDS011;5371;49.782;9.932;2022-10-17T13:02:19;5.63;;;1.98;;
10645;SDS011;5371;49.782;9.932;2022-10-17T13:04:50;5.28;;;2.25;;
10645;SDS011;5371;49.782;9.932;2022-10-17T13:07:24;5.10;;;2.03;;
10645;SDS011;5371;49.782;9.932;2022-10-17T13:09:51;5.32;;;2.00;;
10645;SDS011;5371;49.782;9.932;2022-10-17T13:12:20;4.47;;;1.98;;
10645;SDS011;5371;49.782;9.932;2022-10-17T13:14:51;3.72;;;2.03;;
10645;SDS011;5371;49.782;9.932;2022-10-17T13:17:21;5.80;;;2.10;;
10645;SDS011;5371;49.782;9.932;2022-10-17T13:19:53;5.60;;;2.05;;
10645;SDS011;5371;49.782;9.932;2022-10-17T13:22:21;2.88;;;2.10;;
10645;SDS011;5371;49.782;9.932;2022-10-17T13:24:51;4.75;;;2.00;;
10645;SDS011;5371;49.782;9.932;2022-10-17T13:27:24;2.58;;;1.88;;
10645;SDS011;5371;49.782;9.932;2022-10-17T13:29:53;5.60;;;1.90;;
10645;SDS011;5371;49.782;9.932;2022-10-17T13:32:22;3.90;;;2.10;;
10645;SDS011;5371;49.782;9.932;2022-10-17T13:35:07;5.68;;;2.10;;
10645;SDS011;5371;49.782;9.932;2022-10-17T13:37:36;4.70;;;2.00;;
10645;SDS011;5371;49.782;9.932;2022-10-17T13:40:06;4.75;;;2.00;;
10645;SDS011;5371;49.782;9.932;2022-10-17T13:42:40;3.25;;;2.00;;
10645;SDS011;5371;49.782;9.932;2022-10-17T13:45:11;3.72;;;1.80;;
10645;SDS011;5371;49.782;9.932;2022-10-17T13:47:44;4.57;;;1.63;;
10645;SDS011;5371;49.782;9.932;2022-10-17T13:50:18;1.80;;;1.60;;
10645;SDS011;5371;49.782;9.932;2022-10-17T13:53:04;3.67;;;1.90;;
10645;SDS011;5371;49.782;9.932;2022-10-17T13:55:49;1.65;;;1.42;;
10645;SDS011;5371;49.782;9.932;2022-10-17T13:58:20;3.47;;;1.70;;
10645;SDS011;5371;49.782;9.932;2022-10-17T14:00:47;3.38;;;1.73;;
10645;SDS011;5371;49.782;9.932;2022-10-17T14:03:17;4.50;;;1.88;;
10645;SDS011;5371;49.782;9.932;2022-10-17T14:05:58;2.83;;;1.70;;
10645;SDS011;5371;49.782;9.932;2022-10-17T14:08:28;1.73;;;1.60;;
10645;SDS011;5371;49.782;9.932;2022-10-17T14:10:57;2.42;;;1.73;;
10645;SDS011;5371;49.782;9.932;2022-10-17T14:13:25;4.68;;;2.00;;
10645;SDS011;5371;49.782;9.932;2022-10-17T14:15:54;2.42;;;1.55;;
10645;SDS011;5371;49.782;9.932;2022-10-17T14:18:25;7.15;;;2.25;;
10645;SDS011;5371;49.782;9.932;2022-10-17T14:20:55;3.95;;;1.60;;
10645;SDS011;5371;49.782;9.932;2022-10-17T14:23:31;7.55;;;2.05;;
10645;SDS011;5371;49.782;9.932;2022-10-17T14:26:07;4.65;;;1.85;;
10645;SDS011;5371;49.782;9.932;2022-10-17T14:28:39;5.03;;;1.83;;
10645;SDS011;5371;49.782;9.932;2022-10-17T14:31:21;2.55;;;1.95;;
10645;SDS011;5371;49.782;9.932;2022-10-17T14:33:52;3.92;;;2.05;;
10645;SDS011;5371;49.782;9.932;2022-10-17T14:36:28;1.95;;;1.60;;
10645;SDS011;5371;49.782;9.932;2022-10-17T14:38:58;3.15;;;1.90;;
10645;SDS011;5371;49.782;9.932;2022-10-17T14:41:26;2.22;;;1.70;;
10645;SDS011;5371;49.782;9.932;2022-10-17T14:43:57;8.85;;;1.90;;
10645;SDS011;5371;49.782;9.932;2022-10-17T14:46:26;3.53;;;1.90;;
10645;SDS011;5371;49.782;9.932;2022-10-17T14:48:54;6.13;;;2.17;;
10645;SDS011;5371;49.782;9.932;2022-10-17T14:51:24;5.72;;;2.08;;
10645;SDS011;5371;49.782;9.932;2022-10-17T14:54:03;7.10;;;2.00;;
10645;SDS011;5371;49.782;9.932;2022-10-17T14:56:43;6.88;;;2.00;;
10645;SDS011;5371;49.782;9.932;2022-10-17T14:59:16;5.72;;;1.80;;
10645;SDS011;5371;49.782;9.932;2022-10-17T15:01:46;5.70;;;1.85;;
10645;SDS011;5371;49.782;9.932;2022-10-17T15:04:13;5.65;;;2.05;;
10645;SDS011;5371;49.782;9.932;2022-10-17T15:06:40;3.50;;;1.98;;
10645;SDS011;5371;49.782;9.932;2022-10-17T15:09:09;4.43;;;2.10;;
10645;SDS011;5371;49.782;9.932;2022-10-17T15:11:37;5.60;;;2.10;;
10645;SDS011;5371;49.782;9.932;2022-10-17T15:14:04;3.40;;;2.00;;
10645;SDS011;5371;49.782;9.932;2022-10-17T15:16:32;3.67;;;2.00;;
10645;SDS011;5371;49.782;9.932;2022-10-17T15:19:00;6.07;;;2.10;;
10645;SDS011;5371;49.782;9.932;2022-10-17T15:21:33;5.93;;;2.15;;
10645;SDS011;5371;49.782;9.932;2022-10-17T15:24:01;8.95;;;2.20;;
10645;SDS011;5371;49.782;9.932;2022-10-17T15:26:32;6.82;;;2.08;;
10645;SDS011;5371;49.782;9.932;2022-10-17T15:29:00;3.95;;;2.22;;
10645;SDS011;5371;49.782;9.932;2022-10-17T15:31:28;7.90;;;2.35;;
10645;SDS011;5371;49.782;9.932;2022-10-17T15:33:59;6.72;;;2.40;;
10645;SDS011;5371;49.782;9.932;2022-10-17T15:36:26;4.47;;;2.50;;
10645;SDS011;5371;49.782;9.932;2022-10-17T15:38:56;5.90;;;2.55;;
10645;SDS011;5371;49.782;9.932;2022-10-17T15:41:25;10.20;;;2.67;;